createdAt,value
2019-04-03T01:30:26.610Z,12.20
2019-04-03T01:33:07.668Z,12.10
2019-04-03T02:00:16.266Z,12.00
2019-04-03T02:25:10.567Z,11.90
2019-04-03T02:28:34.584Z,11.80
2019-04-03T02:38:00.987Z,11.80
2019-04-03T02:40:54.914Z,11.80
2019-04-03T02:43:55.465Z,11.70
2019-04-03T02:46:59.278Z,11.70
2019-04-03T02:49:30.661Z,11.60
2019-04-03T02:52:10.026Z,11.60
2019-04-03T02:55:09.349Z,11.60
2019-04-03T02:57:51.967Z,11.60
2019-04-03T03:43:56.249Z,11.40
2019-04-03T03:49:50.207Z,11.40
2019-04-03T03:52:43.019Z,11.40
2019-04-03T03:55:58.690Z,11.40
2019-04-03T04:38:20.143Z,11.30
2019-04-03T04:41:11.063Z,11.40
2019-04-03T04:44:14.328Z,11.40
2019-04-03T04:47:02.963Z,11.40
2019-04-03T04:49:54.867Z,11.40
2019-04-03T05:09:00.062Z,11.30
2019-04-03T05:11:29.318Z,11.30
2019-04-03T05:13:58.574Z,11.30
2019-04-03T05:16:27.848Z,11.40
2019-04-03T05:19:08.681Z,11.30
2019-04-03T05:21:28.089Z,11.30
2019-04-03T05:24:10.377Z,11.30
2019-04-03T05:31:47.721Z,11.40
2019-04-03T05:34:17.263Z,11.40
2019-04-03T05:44:41.685Z,11.40
2019-04-03T05:47:52.709Z,11.40
2019-04-03T05:50:50.691Z,11.40
2019-04-03T05:53:38.327Z,11.40
2019-04-03T05:56:44.710Z,11.40
2019-04-03T06:00:06.820Z,11.50
2019-04-03T06:05:49.756Z,11.30
2019-04-03T06:08:21.821Z,11.30
2019-04-03T06:10:57.978Z,11.20
2019-04-03T06:13:37.053Z,11.30
2019-04-03T06:16:16.510Z,11.20
2019-04-03T06:18:47.627Z,11.30
2019-04-03T06:21:20.133Z,11.50
2019-04-03T06:23:50.920Z,11.50
2019-04-03T06:26:20.337Z,11.50
2019-04-03T06:28:49.634Z,11.40
2019-04-03T06:31:20.695Z,11.50
2019-04-03T06:33:51.602Z,11.50
2019-04-03T06:36:21.248Z,11.60
2019-04-03T06:38:50.601Z,11.60
2019-04-03T06:41:20.407Z,11.60
2019-04-03T06:43:50.814Z,11.70
2019-04-03T06:46:22.353Z,11.70
2019-04-03T06:48:51.826Z,11.80
2019-04-03T06:51:21.206Z,11.90
2019-04-03T06:53:50.537Z,12.00
2019-04-03T06:56:20.346Z,12.10
2019-04-03T06:58:50.493Z,12.20
2019-04-03T07:01:21.235Z,12.40
2019-04-03T07:03:50.576Z,12.60
2019-04-03T07:06:20.199Z,12.80
2019-04-03T07:08:50.522Z,13.00
2019-04-03T07:11:23.746Z,13.10
2019-04-03T07:13:55.861Z,13.30
2019-04-03T07:16:27.006Z,13.50
2019-04-03T07:18:56.833Z,13.60
2019-04-03T07:21:27.648Z,13.70
2019-04-03T07:24:00.338Z,13.90
2019-04-03T07:26:28.950Z,14.10
2019-04-03T07:29:01.319Z,14.30
2019-04-03T07:31:32.819Z,14.40
2019-04-03T07:34:03.520Z,14.60
2019-04-03T07:36:37.279Z,14.80
2019-04-03T07:39:10.922Z,14.90
2019-04-03T07:41:41.297Z,15.00
2019-04-03T07:44:11.158Z,15.10
2019-04-03T07:46:40.612Z,15.30
2019-04-03T07:49:10.527Z,15.40
2019-04-03T07:51:39.914Z,15.60
2019-04-03T07:54:09.425Z,15.70
2019-04-03T07:56:39.083Z,15.80
2019-04-03T07:59:08.496Z,15.90
2019-04-03T08:01:41.369Z,16.00
2019-04-03T08:04:15.399Z,16.20
2019-04-03T08:06:43.707Z,16.30
2019-04-03T08:09:16.661Z,16.40
2019-04-03T08:11:46.145Z,16.50
2019-04-03T08:14:15.724Z,16.80
2019-04-03T08:16:45.893Z,16.90
2019-04-03T08:19:16.397Z,17.00
2019-04-03T08:21:48.220Z,17.10
2019-04-03T08:24:17.809Z,17.30
2019-04-03T08:26:51.630Z,17.40
2019-04-03T08:29:21.039Z,17.50
2019-04-03T08:31:50.696Z,17.50
2019-04-03T08:34:20.150Z,17.50
2019-04-03T08:36:49.816Z,17.40
2019-04-03T08:39:19.866Z,17.40
2019-04-03T08:41:49.294Z,17.40
2019-04-03T08:44:18.731Z,17.40
2019-04-03T08:46:48.180Z,17.50
2019-04-03T08:49:17.568Z,17.50
2019-04-03T08:51:47.097Z,17.70
2019-04-03T08:54:16.675Z,17.80
2019-04-03T08:56:48.721Z,17.90
2019-04-03T08:59:18.767Z,18.00
2019-04-03T09:01:48.256Z,17.90
2019-04-03T09:04:18.004Z,17.80
2019-04-03T09:06:47.545Z,17.90
2019-04-03T09:09:17.255Z,17.80
2019-04-03T09:11:46.836Z,17.60
2019-04-03T09:14:19.378Z,17.50
2019-04-03T09:16:48.754Z,17.40
2019-04-03T09:19:18.164Z,17.30
2019-04-03T09:21:50.766Z,17.30
2019-04-03T09:24:20.574Z,17.40
2019-04-03T09:26:54.544Z,17.30
2019-04-03T09:29:25.562Z,17.30
2019-04-03T09:31:58.677Z,17.20
2019-04-03T09:34:29.739Z,17.30
2019-04-03T09:36:59.172Z,17.30
2019-04-03T09:39:30.523Z,17.30
2019-04-03T09:42:02.035Z,17.40
2019-04-03T09:44:31.723Z,17.70
2019-04-03T09:47:02.946Z,17.90
2019-04-03T09:49:32.232Z,18.20
2019-04-03T09:52:01.573Z,18.50
2019-04-03T09:54:36.098Z,18.50
2019-04-03T09:57:08.693Z,18.60
2019-04-03T09:59:39.567Z,18.60
2019-04-03T10:02:10.431Z,18.60
2019-04-03T10:04:39.973Z,18.70
2019-04-03T10:07:10.571Z,19.10
2019-04-03T10:09:43.410Z,19.40
2019-04-03T10:12:12.446Z,19.70
2019-04-03T10:14:43.231Z,20.00
2019-04-03T10:17:13.216Z,20.10
2019-04-03T10:19:45.594Z,20.30
2019-04-03T10:22:15.314Z,20.40
2019-04-03T10:24:45.539Z,20.60
2019-04-03T10:27:16.178Z,21.00
2019-04-03T10:29:45.850Z,21.10
2019-04-03T10:32:15.296Z,21.30
2019-04-03T10:34:44.712Z,21.40
2019-04-03T10:37:15.128Z,21.50
2019-04-03T10:39:55.022Z,21.60
2019-04-03T10:42:24.794Z,21.60
2019-04-03T10:44:54.451Z,21.80
2019-04-03T10:47:30.183Z,21.70
2019-04-03T10:49:55.380Z,21.70
2019-04-03T10:52:26.560Z,21.90
2019-04-03T10:54:57.307Z,22.10
2019-04-03T10:57:27.181Z,22.20
2019-04-03T10:59:56.624Z,22.30
2019-04-03T11:02:26.677Z,22.40
2019-04-03T11:04:56.100Z,22.40
2019-04-03T11:07:28.869Z,22.60
2019-04-03T11:09:58.549Z,22.70
2019-04-03T11:12:29.983Z,22.80
2019-04-03T11:15:00.415Z,22.80
2019-04-03T11:17:29.642Z,22.80
2019-04-03T11:19:58.907Z,22.60
2019-04-03T11:24:59.749Z,22.90
2019-04-03T11:27:42.810Z,23.20
2019-04-03T11:30:00.854Z,23.30
2019-04-03T11:30:53.706Z,22.80
2019-04-03T11:32:35.072Z,23.10
2019-04-03T11:35:07.594Z,23.00
2019-04-03T11:37:38.748Z,22.80
2019-04-03T11:40:09.467Z,22.70
2019-04-03T11:42:40.274Z,22.50
2019-04-03T11:45:27.309Z,22.20
2019-04-03T11:47:56.884Z,22.10
2019-04-03T11:50:27.681Z,22.10
2019-04-03T11:52:59.144Z,22.00
2019-04-03T11:55:30.517Z,22.10
2019-04-03T11:58:00.850Z,22.20
2019-04-03T12:00:35.928Z,22.50
2019-04-03T12:03:07.866Z,22.80
2019-04-03T12:05:38.860Z,23.00
2019-04-03T12:08:12.432Z,23.20
2019-04-03T12:10:42.259Z,23.20
2019-04-03T12:13:13.573Z,23.30
2019-04-03T12:15:45.931Z,23.40
2019-04-03T12:18:15.685Z,23.40
2019-04-03T12:20:47.634Z,23.60
2019-04-03T12:26:15.800Z,23.70
2019-04-03T12:28:49.042Z,23.70
2019-04-03T12:31:19.756Z,23.70
2019-04-03T12:33:56.059Z,23.80
2019-04-03T12:36:20.240Z,23.80
2019-04-03T12:38:49.888Z,23.90
2019-04-03T12:41:20.369Z,23.80
2019-04-03T12:43:50.660Z,23.90
2019-04-03T12:46:41.211Z,24.10
2019-04-03T12:49:11.136Z,24.10
2019-04-03T12:51:41.183Z,23.90
2019-04-03T12:54:13.278Z,23.80
2019-04-03T12:56:46.055Z,23.60
2019-04-03T12:59:15.567Z,23.20
2019-04-03T13:01:48.254Z,23.00
2019-04-03T13:04:16.869Z,22.90
2019-04-03T13:06:51.290Z,22.80
2019-04-03T13:09:23.302Z,22.80
2019-04-03T13:11:53.265Z,22.90
2019-04-03T13:14:30.047Z,22.90
2019-04-03T13:17:06.261Z,22.90
2019-04-03T13:19:38.611Z,22.80
2019-04-03T13:22:11.442Z,22.70
2019-04-03T13:25:20.971Z,22.80
2019-04-03T13:28:26.302Z,22.90
2019-04-03T13:31:10.924Z,23.10
2019-04-03T13:33:40.383Z,23.30
2019-04-03T13:36:12.063Z,23.40
2019-04-03T13:38:44.097Z,23.60
2019-04-03T13:41:15.655Z,23.50
2019-04-03T13:43:47.405Z,23.50
2019-04-03T13:46:17.052Z,23.40
2019-04-03T13:48:51.958Z,23.20
2019-04-03T13:51:22.295Z,23.10
2019-04-03T13:53:54.573Z,23.00
2019-04-03T13:56:25.680Z,22.90
2019-04-03T13:58:55.263Z,22.90
2019-04-03T14:01:27.243Z,22.90
2019-04-03T14:04:03.721Z,23.00
2019-04-03T14:06:37.744Z,23.30
2019-04-03T14:09:15.207Z,23.40
2019-04-03T14:11:44.848Z,23.50
2019-04-03T14:14:16.119Z,23.70
2019-04-03T14:16:46.724Z,23.70
2019-04-03T14:19:19.845Z,23.70
2019-04-03T14:21:51.949Z,23.70
2019-04-03T14:24:21.814Z,23.70
2019-04-03T14:26:53.262Z,23.50
2019-04-03T14:29:22.867Z,23.60
2019-04-03T14:36:28.160Z,23.70
2019-04-03T14:39:18.375Z,23.60
2019-04-03T14:42:43.161Z,23.90
2019-04-03T14:48:47.265Z,24.10
2019-04-03T14:59:53.419Z,24.20
2019-04-03T15:02:30.499Z,24.30
2019-04-03T15:05:03.353Z,24.20
2019-04-03T15:07:35.888Z,24.20
2019-04-03T15:10:06.364Z,24.30
2019-04-03T15:12:38.512Z,24.30
2019-04-03T15:15:07.344Z,24.40
2019-04-03T15:20:12.542Z,24.30
2019-04-03T15:22:42.655Z,24.20
2019-04-03T15:25:12.876Z,24.30
2019-04-03T15:27:42.744Z,24.40
2019-04-03T15:30:12.719Z,24.40
2019-04-03T15:32:43.774Z,24.30
2019-04-03T15:35:16.389Z,24.10
2019-04-03T15:37:46.056Z,24.10
2019-04-03T15:40:21.076Z,23.90
2019-04-03T15:42:59.051Z,23.80
2019-04-03T15:45:33.168Z,23.90
2019-04-03T15:48:09.168Z,23.90
2019-04-03T15:50:39.340Z,23.80
2019-04-03T15:53:12.686Z,23.70
2019-04-03T15:55:44.690Z,23.60
2019-04-03T15:58:14.834Z,23.60
2019-04-03T16:00:44.950Z,23.70
2019-04-03T16:03:20.211Z,23.70
2019-04-03T16:05:51.224Z,23.80
2019-04-03T16:08:21.032Z,23.80
2019-04-03T16:10:51.672Z,23.80
2019-04-03T16:13:22.210Z,23.80
2019-04-03T16:15:56.284Z,23.90
2019-04-03T16:18:27.290Z,23.80
2019-04-03T16:20:58.242Z,23.50
2019-04-03T16:23:30.746Z,22.90
2019-04-03T16:26:00.452Z,22.70
2019-04-03T16:28:33.727Z,22.40
2019-04-03T16:31:02.448Z,22.20
2019-04-03T16:33:35.746Z,22.20
2019-04-03T16:36:08.706Z,22.10
2019-04-03T16:38:38.301Z,21.90
2019-04-03T16:41:10.128Z,21.80
2019-04-03T16:43:45.664Z,21.60
2019-04-03T16:46:17.877Z,21.50
2019-04-03T16:48:49.901Z,21.40
2019-04-03T16:51:21.448Z,21.20
2019-04-03T16:53:50.980Z,21.00
2019-04-03T16:56:22.222Z,20.80
2019-04-03T16:58:59.598Z,20.60
2019-04-03T17:04:25.011Z,20.50
2019-04-03T17:06:49.566Z,20.40
2019-04-03T17:09:19.779Z,20.30
2019-04-03T17:11:52.354Z,20.20
2019-04-03T17:14:25.099Z,20.10
2019-04-03T17:19:59.911Z,19.90
2019-04-03T17:22:47.576Z,19.80
2019-04-03T17:25:45.808Z,19.70
2019-04-03T17:28:10.203Z,19.60
2019-04-03T17:34:28.392Z,19.50
2019-04-03T17:37:15.258Z,19.30
2019-04-03T17:39:44.678Z,19.30
2019-04-03T17:42:14.874Z,19.30
2019-04-03T17:44:46.581Z,19.20
2019-04-03T17:47:19.457Z,19.20
2019-04-03T17:49:49.475Z,19.00
2019-04-03T17:52:55.031Z,18.90
2019-04-03T17:55:24.429Z,18.90
2019-04-03T17:57:58.851Z,18.70
2019-04-03T18:00:32.778Z,18.70
2019-04-03T18:03:03.492Z,18.60
2019-04-03T18:06:06.150Z,18.50
2019-04-03T18:08:41.800Z,18.40
2019-04-03T18:15:49.944Z,18.30
2019-04-03T18:23:43.967Z,18.00
2019-04-03T18:26:16.791Z,18.00
2019-04-03T18:28:49.744Z,17.90
2019-04-03T18:31:19.120Z,17.90
2019-04-03T18:33:51.273Z,17.80
2019-04-03T18:36:20.478Z,17.80
2019-04-03T18:38:49.785Z,17.70
2019-04-03T18:47:17.198Z,17.50
2019-04-03T18:53:01.755Z,17.50
2019-04-03T18:55:34.884Z,17.40
2019-04-03T18:58:04.334Z,17.30
2019-04-03T19:00:41.337Z,17.30
2019-04-03T19:03:13.671Z,17.20
2019-04-03T19:05:44.441Z,17.20
2019-04-03T19:08:14.069Z,17.20
2019-04-03T19:10:43.409Z,17.10
2019-04-03T19:13:14.565Z,17.00
2019-04-03T19:15:44.081Z,16.90
2019-04-03T19:18:19.656Z,16.90
2019-04-03T19:20:48.594Z,16.90
2019-04-03T19:23:22.825Z,16.90
2019-04-03T19:25:52.102Z,16.90
2019-04-03T19:28:21.462Z,16.80
2019-04-03T19:30:51.103Z,16.90
2019-04-03T19:33:20.333Z,16.80
2019-04-03T19:35:51.310Z,16.70
2019-04-03T19:38:53.304Z,16.60
2019-04-03T19:41:21.486Z,16.60
2019-04-03T19:43:52.777Z,16.60
2019-04-03T19:46:23.776Z,16.50
2019-04-03T19:48:56.489Z,16.50
2019-04-03T19:51:26.540Z,16.40
2019-04-03T19:53:59.449Z,16.50
2019-04-03T19:56:33.736Z,16.40
2019-04-03T19:59:04.889Z,16.40
2019-04-03T20:01:35.081Z,16.30
2019-04-03T20:04:10.645Z,16.30
2019-04-03T20:06:40.102Z,16.30
2019-04-03T20:09:12.310Z,16.20
2019-04-03T20:14:24.421Z,16.10
2019-04-03T20:23:19.169Z,16.00
2019-04-03T20:25:48.514Z,15.90
2019-04-03T20:28:18.056Z,15.90
2019-04-03T20:33:37.347Z,15.80
2019-04-03T20:38:53.811Z,15.70
2019-04-03T20:41:23.269Z,15.70
2019-04-03T20:43:52.653Z,15.60
2019-04-03T20:46:23.760Z,15.60
2019-04-03T20:48:53.199Z,15.50
2019-04-03T20:51:25.534Z,15.50
2019-04-03T20:53:54.934Z,15.50
2019-04-03T20:56:24.247Z,15.40
2019-04-03T20:58:56.191Z,15.40
2019-04-03T21:01:26.892Z,15.40
2019-04-03T21:03:56.177Z,15.40
2019-04-03T21:06:26.209Z,15.40
2019-04-03T21:08:58.785Z,15.30
2019-04-03T21:11:26.336Z,15.30
2019-04-03T21:13:59.252Z,15.20
2019-04-03T21:16:33.474Z,15.20
2019-04-03T21:18:59.402Z,15.30
2019-04-03T21:21:33.165Z,15.20
2019-04-03T21:24:04.682Z,15.10
2019-04-03T21:27:25.464Z,15.00
2019-04-03T21:29:54.618Z,15.10
2019-04-03T21:32:24.527Z,15.00
2019-04-03T21:34:55.343Z,15.00
2019-04-03T21:37:24.664Z,14.90
2019-04-03T21:40:18.655Z,15.00
2019-04-03T21:42:49.633Z,14.90
2019-04-03T21:45:26.184Z,14.80
2019-04-03T21:47:57.900Z,14.80
2019-04-03T21:53:43.920Z,14.70
2019-04-03T21:56:14.955Z,14.70
2019-04-03T21:58:45.813Z,14.60
2019-04-03T22:01:21.612Z,14.60
2019-04-03T22:04:10.157Z,14.50
2019-04-03T22:06:39.365Z,14.50
2019-04-03T22:09:11.556Z,14.50
2019-04-03T22:11:48.812Z,14.40
2019-04-03T22:14:18.134Z,14.40
2019-04-03T22:16:51.522Z,14.40
2019-04-03T22:19:23.216Z,14.30
2019-04-03T22:21:52.809Z,14.30
2019-04-03T22:24:24.786Z,14.30
2019-04-03T22:27:14.970Z,14.20
2019-04-03T22:29:46.490Z,14.20
2019-04-03T22:32:15.789Z,14.20
2019-04-03T22:34:47.782Z,14.10
2019-04-03T22:37:28.104Z,14.10
2019-04-03T22:40:22.574Z,14.10
2019-04-03T22:42:55.336Z,14.10
2019-04-03T22:45:35.129Z,14.00
2019-04-03T22:48:06.163Z,14.00
2019-04-03T22:50:47.194Z,14.00
2019-04-03T22:56:17.557Z,14.00
2019-04-03T22:58:53.460Z,14.00
2019-04-03T23:01:29.836Z,14.00
2019-04-03T23:04:04.860Z,13.90
2019-04-03T23:06:37.505Z,13.90
2019-04-03T23:09:11.216Z,13.80
2019-04-03T23:11:41.266Z,13.80
2019-04-03T23:14:14.982Z,13.80
2019-04-03T23:16:45.720Z,13.80
2019-04-03T23:19:42.335Z,13.70
2019-04-03T23:22:16.242Z,13.70
2019-04-03T23:24:46.815Z,13.60
2019-04-03T23:27:49.941Z,13.60
2019-04-03T23:30:19.443Z,13.60
2019-04-03T23:32:48.733Z,13.60
2019-04-03T23:35:20.382Z,13.60
2019-04-03T23:37:48.885Z,13.50
2019-04-03T23:40:18.241Z,13.50
2019-04-03T23:42:47.491Z,13.50
2019-04-03T23:45:17.733Z,13.50
2019-04-03T23:47:47.542Z,13.40
2019-04-03T23:50:16.754Z,13.40
2019-04-03T23:52:46.004Z,13.30
2019-04-03T23:55:15.129Z,13.30
2019-04-03T23:57:44.310Z,13.30
